Date,TemperatureHighF,TemperatureAvgF,TemperatureLowF,DewpointHighF,DewpointAvgF,DewpointLowF,HumidityHigh,HumidityAvg,HumidityLow,PressureMaxIn,PressureMinIn,WindSpeedMaxMPH,WindSpeedAvgMPH,GustSpeedMaxMPH,PrecipitationSumIn
2013-2-1,66,50,42,45,41,38,93,74,40,30.41,30.31,5,0,0,0.00
2013-2-2,65,50,38,55,45,33,98,82,66,30.35,30.19,11,2,0,0.00
2013-2-3,66,54,44,54,48,43,100,81,52,30.27,30.13,7,1,0,0.00
2013-2-4,62,52,41,58,48,40,99,88,62,30.12,29.97,6,1,0,0.24
2013-2-5,68,60,54,64,59,54,100,95,84,30.04,29.93,12,1,0,0.36
2013-2-6,68,60,54,63,58,54,100,96,83,30.14,30.00,12,2,0,0.02
2013-2-7,75,64,54,66,60,54,100,90,68,30.00,29.81,15,3,0,1.46
2013-2-8,74,61,52,64,57,52,100,89,70,30.16,29.94,5,0,0,0.00
2013-2-9,66,57,48,60,53,46,96,87,74,30.24,30.09,12,3,0,0.00
2013-2-10,69,66,61,68,64,60,100,95,91,30.08,29.95,18,6,0,0.06
2013-2-11,68,62,57,68,62,57,100,99,95,30.10,29.97,11,2,0,0.35
2013-2-12,69,62,57,69,62,57,100,99,98,30.04,29.75,15,2,0,0.09
2013-2-13,66,52,43,66,51,42,99,96,86,30.07,29.79,14,2,0,0.15
2013-2-14,58,47,40,49,44,40,99,89,65,30.17,30.05,6,0,0,0.00
2013-2-15,65,50,37,48,44,37,100,82,47,30.18,30.06,8,1,0,0.00
2013-2-16,56,48,34,43,32,21,82,57,28,30.30,30.12,17,3,0,0.00
2013-2-17,56,45,31,42,34,28,92,69,48,30.39,30.25,12,2,0,0.00
2013-2-18,64,59,53,60,53,42,93,80,67,30.25,30.00,19,7,0,0.00
2013-2-19,69,60,46,61,47,32,99,68,31,30.22,29.98,19,2,0,0.29
2013-2-20,59,49,42,42,36,30,93,63,40,30.28,30.06,9,2,0,0.00
2013-2-21,65,57,46,64,53,39,98,86,72,30.05,29.83,15,4,0,0.00
2013-2-22,69,64,58,69,61,55,100,92,64,29.97,29.86,10,1,0,1.26
2013-2-23,60,58,55,60,57,52,100,97,88,29.95,29.81,6,1,0,1.05
2013-2-24,67,58,48,61,55,47,99,90,77,29.98,29.79,8,2,0,0.35
2013-2-25,67,62,60,67,62,59,100,99,91,29.80,29.48,20,6,0,3.36
2013-2-26,61,55,48,56,45,39,92,70,54,29.93,29.53,11,3,0,0.00
2013-2-27,63,55,46,55,48,44,97,80,51,30.03,29.92,11,2,0,0.00
2013-2-28,60,51,41,47,40,33,93,68,41,30.11,30.01,9,1,0,0.00